Time;durP1;ratioP1;P1;durP2;ratioP2;P2;SDS_P1;SDS_P2;PMS_P1;PMS_P2;Temp;Humidity;BMP_temperature;BMP_pressure;BME280_temperature;BME280_humidity;BME280_pressure;Samples;Min_cycle;Max_cycle;Signal;HPM_P1;HPM_P2
2023/10/11 00:02:24;;;;;;;17.88;7.20;;;;;;;16.95;100.00;101306.84;5027829;28;20211;-73
2023/10/11 00:04:49;;;;;;;18.95;7.55;;;;;;;16.92;100.00;101307.97;5032973;28;20045;-73
2023/10/11 00:07:18;;;;;;;10.70;6.32;;;;;;;16.91;100.00;101300.84;5027673;28;20417;-73
2023/10/11 00:09:44;;;;;;;14.82;7.55;;;;;;;16.95;100.00;101304.16;5028434;28;20034;-73
2023/10/11 00:12:11;;;;;;;15.93;7.22;;;;;;;16.97;100.00;101304.91;5027858;28;20069;-74
2023/10/11 00:14:40;;;;;;;20.48;7.68;;;;;;;16.93;100.00;101307.00;5031442;28;20044;-73
2023/10/11 00:17:07;;;;;;;15.90;7.50;;;;;;;16.96;100.00;101303.16;5028514;28;21717;-74
2023/10/11 00:19:33;;;;;;;16.13;7.82;;;;;;;16.90;100.00;101309.06;5029872;28;20919;-73
2023/10/11 00:22:00;;;;;;;16.30;7.57;;;;;;;16.93;100.00;101303.44;5023190;28;31187;-72
2023/10/11 00:24:28;;;;;;;15.77;7.65;;;;;;;16.90;100.00;101301.84;5024737;28;20097;-73
2023/10/11 00:26:56;;;;;;;14.20;6.50;;;;;;;16.95;100.00;101296.06;5029473;28;20042;-73
2023/10/11 00:29:22;;;;;;;13.10;6.85;;;;;;;16.91;100.00;101303.53;5033208;28;20029;-72
2023/10/11 00:31:51;;;;;;;12.77;7.25;;;;;;;16.79;100.00;101299.19;5027837;28;20045;-73
2023/10/11 00:34:20;;;;;;;18.52;6.85;;;;;;;16.91;100.00;101306.25;5017032;28;20999;-73
2023/10/11 00:36:49;;;;;;;14.73;7.40;;;;;;;16.85;100.00;101298.66;5030799;28;20033;-73
2023/10/11 00:39:17;;;;;;;16.70;6.63;;;;;;;16.87;100.00;101298.53;5032485;28;20036;-73
2023/10/11 00:41:47;;;;;;;14.75;7.10;;;;;;;16.84;100.00;101299.66;5021934;28;20136;-74
2023/10/11 00:44:16;;;;;;;17.00;6.97;;;;;;;16.80;100.00;101296.34;5040336;28;20041;-73
2023/10/11 00:47:00;;;;;;;15.02;6.72;;;;;;;16.71;100.00;101299.78;5049835;28;20056;-73
2023/10/11 00:49:39;;;;;;;18.20;7.35;;;;;;;16.77;100.00;101283.16;5033256;28;20029;-73
2023/10/11 00:52:06;;;;;;;16.58;7.55;;;;;;;16.78;100.00;101282.16;5064532;28;20044;-74
2023/10/11 00:54:43;;;;;;;14.70;7.43;;;;;;;16.82;100.00;101290.88;5028267;28;20148;-74
2023/10/11 00:57:12;;;;;;;17.88;7.93;;;;;;;16.82;100.00;101282.78;5021562;28;20044;-74
2023/10/11 00:59:38;;;;;;;19.60;7.03;;;;;;;16.85;100.00;101276.28;5025736;28;20038;-73
2023/10/11 01:02:06;;;;;;;15.65;7.18;;;;;;;16.83;100.00;101279.94;5032616;28;20055;-73
2023/10/11 01:04:37;;;;;;;10.52;6.57;;;;;;;16.89;100.00;101283.13;5032447;28;20029;-73
2023/10/11 01:07:02;;;;;;;18.42;7.50;;;;;;;16.91;100.00;101275.75;5035361;28;20070;-73
2023/10/11 01:09:29;;;;;;;17.52;7.57;;;;;;;16.86;100.00;101277.97;5026875;28;20065;-73
2023/10/11 01:11:54;;;;;;;15.68;7.55;;;;;;;16.80;100.00;101272.13;5029521;28;20046;-73
2023/10/11 01:14:23;;;;;;;16.45;6.60;;;;;;;16.90;100.00;101265.97;5023527;28;20042;-73
2023/10/11 01:16:51;;;;;;;12.38;6.90;;;;;;;16.98;100.00;101266.19;5025516;28;20041;-73
2023/10/11 01:19:18;;;;;;;15.40;7.32;;;;;;;16.93;100.00;101271.97;5016579;28;21046;-72
2023/10/11 01:21:48;;;;;;;14.77;7.35;;;;;;;16.91;100.00;101263.13;5027917;28;20050;-73
2023/10/11 01:24:16;;;;;;;17.00;7.90;;;;;;;16.86;100.00;101269.88;5028936;28;20041;-73
2023/10/11 01:26:42;;;;;;;18.38;7.03;;;;;;;16.78;100.00;101266.00;5017615;28;20134;-72
2023/10/11 01:29:09;;;;;;;17.52;7.45;;;;;;;16.89;100.00;101257.03;5024466;28;20045;-73
2023/10/11 01:31:35;;;;;;;16.02;6.82;;;;;;;16.91;100.00;101255.06;5024666;28;20262;-73
2023/10/11 01:34:01;;;;;;;14.82;6.45;;;;;;;16.95;100.00;101261.06;5029577;28;20096;-74
2023/10/11 01:36:27;;;;;;;13.43;6.75;;;;;;;16.91;100.00;101256.91;5031646;28;20164;-73
2023/10/11 01:38:52;;;;;;;13.18;6.15;;;;;;;16.92;100.00;101259.47;5022584;28;20561;-73
2023/10/11 01:41:23;;;;;;;13.65;6.70;;;;;;;16.91;100.00;101251.50;5026268;28;20046;-73
2023/10/11 01:43:50;;;;;;;12.90;7.28;;;;;;;16.93;100.00;101250.41;5025802;28;20030;-72
2023/10/11 01:46:17;;;;;;;14.88;7.10;;;;;;;16.92;100.00;101250.50;5025171;28;20110;-73
2023/10/11 01:48:45;;;;;;;18.67;6.93;;;;;;;16.89;100.00;101248.94;5032637;28;20041;-73
2023/10/11 01:51:11;;;;;;;15.13;6.82;;;;;;;16.87;100.00;101237.47;5028358;28;20032;-73
2023/10/11 01:53:37;;;;;;;10.82;6.45;;;;;;;16.98;100.00;101245.50;5025502;28;20030;-73
2023/10/11 01:56:03;;;;;;;16.45;6.68;;;;;;;16.93;100.00;101236.94;5029616;28;20033;-73
2023/10/11 01:58:29;;;;;;;14.65;7.75;;;;;;;16.93;100.00;101236.94;5030973;28;20038;-73
2023/10/11 02:00:55;;;;;;;16.15;7.88;;;;;;;16.97;100.00;101234.84;5029915;28;20041;-73
2023/10/11 02:03:24;;;;;;;14.27;7.15;;;;;;;16.94;100.00;101233.25;5023310;28;20197;-73
2023/10/11 02:05:50;;;;;;;13.80;6.75;;;;;;;16.95;100.00;101234.97;5016860;28;20567;-74
2023/10/11 02:08:17;;;;;;;12.68;7.28;;;;;;;16.97;100.00;101241.09;5027345;28;20065;-73
2023/10/11 02:10:45;;;;;;;12.35;6.68;;;;;;;16.94;100.00;101230.56;5028232;28;20988;-73
2023/10/11 02:13:11;;;;;;;13.13;7.22;;;;;;;16.94;100.00;101221.63;5032439;28;20033;-72
2023/10/11 02:15:39;;;;;;;13.18;7.18;;;;;;;16.85;100.00;101227.78;5015314;28;21089;-74
2023/10/11 02:18:08;;;;;;;15.93;7.45;;;;;;;16.87;100.00;101228.50;5026850;28;20041;-73
2023/10/11 02:20:35;;;;;;;14.40;6.80;;;;;;;16.83;100.00;101227.91;5031020;28;20041;-73
2023/10/11 02:23:01;;;;;;;13.73;6.88;;;;;;;16.88;100.00;101225.69;5026904;28;20033;-73
2023/10/11 02:25:27;;;;;;;19.30;7.82;;;;;;;16.77;100.00;101226.59;5029863;28;20037;-73
2023/10/11 02:27:54;;;;;;;10.57;6.70;;;;;;;16.88;100.00;101223.00;5031954;28;20044;-73
2023/10/11 02:30:22;;;;;;;22.33;7.72;;;;;;;16.88;100.00;101222.16;5025434;28;21034;-73
2023/10/11 02:32:50;;;;;;;12.85;7.40;;;;;;;16.71;100.00;101220.81;5033684;28;20034;-73
2023/10/11 02:35:18;;;;;;;16.83;7.55;;;;;;;16.82;100.00;101215.44;5029379;28;20029;-72
2023/10/11 02:37:45;;;;;;;18.70;8.25;;;;;;;16.71;100.00;101218.13;5025617;28;20067;-73
2023/10/11 02:40:16;;;;;;;12.02;7.03;;;;;;;16.82;100.00;101227.06;5029973;28;20033;-74
2023/10/11 02:42:43;;;;;;;16.02;8.57;;;;;;;16.78;100.00;101214.84;5022647;28;20048;-73
2023/10/11 02:45:12;;;;;;;16.50;7.78;;;;;;;16.82;100.00;101219.00;5029940;28;20037;-74
2023/10/11 02:47:38;;;;;;;13.27;7.25;;;;;;;16.86;100.00;101219.56;5013971;28;20033;-73
2023/10/11 02:50:08;;;;;;;16.52;8.15;;;;;;;16.75;100.00;101211.53;5020428;28;20111;-73
2023/10/11 02:52:37;;;;;;;16.40;9.52;;;;;;;16.72;100.00;101195.66;5028776;28;20041;-73
2023/10/11 02:57:44;;;;;;;15.10;8.63;;;;;;;16.70;100.00;101201.09;5023397;28;20036;-73
2023/10/11 03:00:24;;;;;;;17.88;8.18;;;;;;;16.68;100.00;101203.09;5039277;28;20037;-73
2023/10/11 03:02:55;;;;;;;18.63;8.77;;;;;;;16.66;100.00;101205.03;5056350;28;20045;-73
2023/10/11 03:05:28;;;;;;;14.93;7.35;;;;;;;16.70;100.00;101198.41;5039433;28;20033;-73
2023/10/11 03:08:18;;;;;;;13.05;7.30;;;;;;;16.65;100.00;101191.72;5015993;28;20034;-74
2023/10/11 03:10:46;;;;;;;15.02;7.53;;;;;;;16.59;100.00;101190.38;5027775;28;20061;-73
2023/10/11 03:13:19;;;;;;;15.18;6.97;;;;;;;16.54;100.00;101184.53;5030897;28;20061;-73
2023/10/11 03:15:46;;;;;;;15.30;8.85;;;;;;;16.55;100.00;101183.53;5011216;28;20036;-73
2023/10/11 03:18:12;;;;;;;13.35;7.95;;;;;;;16.38;100.00;101184.94;5062925;28;20036;-74
2023/10/11 03:20:38;;;;;;;15.27;7.55;;;;;;;16.27;100.00;101179.59;5027118;28;20044;-73
2023/10/11 03:23:13;;;;;;;13.35;7.82;;;;;;;16.31;100.00;101189.09;5026162;28;20033;-73
2023/10/11 03:25:44;;;;;;;16.85;8.35;;;;;;;16.29;100.00;101197.31;5033656;28;20228;-73
2023/10/11 03:28:13;;;;;;;15.25;8.85;;;;;;;16.24;100.00;101186.06;5028704;28;20208;-74
2023/10/11 03:30:39;;;;;;;16.55;8.73;;;;;;;16.22;100.00;101185.34;5031044;28;20122;-73
2023/10/11 03:33:07;;;;;;;17.92;8.20;;;;;;;16.20;100.00;101187.28;5025201;28;20026;-73
2023/10/11 03:35:38;;;;;;;18.70;8.13;;;;;;;16.14;100.00;101181.56;5027113;28;20115;-73
2023/10/11 03:38:06;;;;;;;16.60;7.97;;;;;;;16.07;100.00;101189.28;5025945;28;20049;-73
2023/10/11 03:40:34;;;;;;;13.95;8.07;;;;;;;16.08;100.00;101198.22;5023286;28;20046;-73
2023/10/11 03:43:11;;;;;;;15.15;7.75;;;;;;;16.04;100.00;101187.69;5026377;28;20033;-73
2023/10/11 03:45:49;;;;;;;19.85;8.18;;;;;;;16.00;100.00;101191.59;5019846;28;20033;-73
2023/10/11 03:48:18;;;;;;;16.33;8.77;;;;;;;16.00;100.00;101183.53;5021950;28;20037;-73
2023/10/11 03:50:52;;;;;;;15.27;7.78;;;;;;;15.96;100.00;101186.59;5024761;28;20624;-74
2023/10/11 03:53:18;;;;;;;15.00;8.27;;;;;;;15.96;100.00;101186.59;5029704;28;20155;-74
2023/10/11 03:55:48;;;;;;;14.32;8.98;;;;;;;15.77;100.00;101177.31;5015708;28;20045;-73
2023/10/11 04:00:50;;;;;;;18.95;8.95;;;;;;;15.90;100.00;101174.50;5026988;28;20053;-74
2023/10/11 04:03:18;;;;;;;17.58;8.60;;;;;;;15.86;100.00;101164.09;5027191;28;20083;-73
2023/10/11 04:05:47;;;;;;;18.58;9.35;;;;;;;15.84;100.00;101158.84;5029262;28;20975;-73
2023/10/11 04:08:19;;;;;;;18.58;8.68;;;;;;;15.80;100.00;101169.00;5024353;28;20030;-73
2023/10/11 04:10:49;;;;;;;16.70;9.03;;;;;;;15.75;100.00;101164.97;5062302;28;20098;-73
2023/10/11 04:13:15;;;;;;;14.40;8.48;;;;;;;15.73;100.00;101165.09;5019359;28;20337;-73
2023/10/11 04:15:41;;;;;;;21.27;8.70;;;;;;;15.76;100.00;101161.28;5023890;28;20052;-72
2023/10/11 04:18:14;;;;;;;23.77;8.68;;;;;;;15.80;100.00;101162.75;5020604;28;20040;-73
2023/10/11 04:20:50;;;;;;;21.65;9.20;;;;;;;15.77;100.00;101163.03;5022001;28;20041;-73
2023/10/11 04:23:15;;;;;;;19.33;9.73;;;;;;;15.80;100.00;101163.63;5029303;28;20029;-73
2023/10/11 04:25:47;;;;;;;20.92;9.30;;;;;;;15.83;100.00;101162.53;5025903;28;20045;-73
2023/10/11 04:28:12;;;;;;;19.15;10.23;;;;;;;15.80;100.00;101162.75;5029475;28;20135;-74
2023/10/11 04:30:41;;;;;;;15.75;8.60;;;;;;;15.82;100.00;101162.66;5031231;28;20135;-74
2023/10/11 04:33:20;;;;;;;16.52;9.20;;;;;;;15.83;100.00;101164.38;5032232;28;20108;-73
2023/10/11 04:35:57;;;;;;;18.00;9.35;;;;;;;15.76;100.00;101172.94;5028601;28;20033;-72
2023/10/11 04:38:23;;;;;;;12.50;8.43;;;;;;;15.76;100.00;101172.94;5031938;28;20029;-73
2023/10/11 04:40:52;;;;;;;20.48;9.00;;;;;;;15.64;100.00;101165.81;5033849;28;20046;-73
2023/10/11 04:43:25;;;;;;;20.02;9.05;;;;;;;15.59;100.00;101165.31;5031648;28;20116;-73
2023/10/11 04:45:55;;;;;;;24.05;9.57;;;;;;;15.57;100.00;101169.97;5033148;28;20102;-73
2023/10/11 04:48:36;;;;;;;27.48;10.07;;;;;;;15.62;100.00;101169.59;5023096;28;20048;-73
2023/10/11 04:59:07;;;;;;;18.15;9.23;;;;;;;15.51;100.00;101194.59;5026406;28;20045;-72
2023/10/11 05:04:15;;;;;;;19.52;10.05;;;;;;;15.38;100.00;101193.88;5027108;28;20123;-73
2023/10/11 05:06:44;;;;;;;18.85;9.80;;;;;;;15.45;100.00;101195.94;5024269;28;20120;-73
2023/10/11 05:11:44;;;;;;;23.30;10.38;;;;;;;15.46;100.00;101202.19;5029215;28;20029;-74
2023/10/11 05:14:26;;;;;;;17.55;10.30;;;;;;;15.41;100.00;101188.25;5026802;28;20049;-73
2023/10/11 05:16:58;;;;;;;19.30;10.63;;;;;;;15.34;100.00;101173.59;5030015;28;20546;-73
2023/10/11 05:19:27;;;;;;;22.08;10.98;;;;;;;15.40;100.00;101176.63;5022373;28;20112;-73
2023/10/11 05:21:54;;;;;;;22.48;10.88;;;;;;;15.37;100.00;101178.72;5019359;28;20049;-72
2023/10/11 05:27:11;;;;;;;23.95;11.93;;;;;;;15.12;100.00;101179.78;5021382;28;20042;-73
2023/10/11 05:30:05;;;;;;;25.40;12.15;;;;;;;15.03;100.00;101175.97;5030456;28;20045;-73
2023/10/11 05:32:27;;;;;;;22.77;11.48;;;;;;;15.08;100.00;101189.03;5018577;28;20056;-72
2023/10/11 05:51:26;;;;;;;17.63;11.48;;;;;;;14.99;100.00;101186.06;5022482;28;20076;-74
2023/10/11 05:53:52;;;;;;;24.67;11.73;;;;;;;15.01;100.00;101200.25;5017194;28;20042;-73
2023/10/11 05:56:21;;;;;;;21.75;12.27;;;;;;;15.06;100.00;101190.97;5029468;28;20308;-73
2023/10/11 05:58:51;;;;;;;24.40;10.93;;;;;;;15.22;100.00;101195.06;5032255;28;20100;-73
2023/10/11 06:01:21;;;;;;;21.55;11.85;;;;;;;15.25;100.00;101193.97;5031650;28;20049;-73
2023/10/11 06:03:55;;;;;;;23.45;12.18;;;;;;;15.39;100.00;101179.47;5027914;28;20033;-73
2023/10/11 06:06:27;;;;;;;23.88;12.40;;;;;;;15.46;100.00;101183.38;5026248;28;20056;-74
2023/10/11 06:08:56;;;;;;;27.13;12.50;;;;;;;15.54;100.00;101184.47;5025476;28;20046;-73
2023/10/11 06:11:24;;;;;;;26.23;12.35;;;;;;;15.60;100.00;101174.22;5022205;28;20138;-73
2023/10/11 06:13:52;;;;;;;19.63;11.82;;;;;;;15.48;100.00;101163.47;5022384;28;20901;-73
2023/10/11 06:16:19;;;;;;;23.42;12.02;;;;;;;15.62;100.00;101167.75;5023092;28;20066;-73
2023/10/11 06:19:30;;;;;;;20.70;11.52;;;;;;;15.83;100.00;101172.44;5020279;28;20034;-73
2023/10/11 06:21:33;;;;;;;22.15;12.75;;;;;;;15.92;100.00;101167.16;5028489;28;20046;-74
2023/10/11 06:24:06;;;;;;;24.27;11.95;;;;;;;15.90;100.00;101163.72;5027824;28;20832;-73
2023/10/11 06:29:03;;;;;;;24.95;11.65;;;;;;;16.08;100.00;101165.94;5025691;28;19924;-73
2023/10/11 06:31:39;;;;;;;26.70;12.10;;;;;;;16.06;100.00;101184.88;5030323;28;20041;-73
2023/10/11 06:37:02;;;;;;;23.40;11.48;;;;;;;16.37;100.00;101160.84;5027098;28;20049;-73
2023/10/11 06:42:13;;;;;;;24.52;13.27;;;;;;;16.27;100.00;101168.81;5026724;28;20062;-73
2023/10/11 06:44:49;;;;;;;23.80;12.75;;;;;;;16.38;100.00;101173.31;5031218;28;20132;-73
2023/10/11 06:47:15;;;;;;;29.13;13.07;;;;;;;16.50;100.00;101178.53;5025057;28;20033;-72
2023/10/11 06:49:47;;;;;;;22.73;13.27;;;;;;;16.54;100.00;101180.00;5028821;28;20038;-73
2023/10/11 06:52:15;;;;;;;30.52;13.50;;;;;;;16.58;100.00;101180.59;5028377;28;20056;-73
2023/10/11 06:54:48;;;;;;;22.65;12.32;;;;;;;16.76;100.00;101168.31;5032185;28;20092;-73
2023/10/11 06:57:19;;;;;;;29.13;12.95;;;;;;;16.77;100.00;101180.81;5017255;28;20136;-73
2023/10/11 06:59:57;;;;;;;24.98;12.43;;;;;;;16.91;100.00;101170.69;5027396;28;20041;-73
2023/10/11 07:02:34;;;;;;;30.10;12.70;;;;;;;17.19;100.00;101161.97;5024249;28;20077;-73
2023/10/11 07:05:05;;;;;;;28.70;13.88;;;;;;;17.35;100.00;101170.44;5027280;28;20046;-73
2023/10/11 07:07:32;;;;;;;32.45;12.80;;;;;;;17.45;100.00;101162.41;5027509;28;20053;-73
2023/10/11 07:10:00;;;;;;;29.77;12.40;;;;;;;17.70;100.00;101176.44;5026613;28;20091;-72
2023/10/11 07:12:28;;;;;;;25.30;12.07;;;;;;;17.78;100.00;101182.06;5024361;28;20145;-73
2023/10/11 07:14:58;;;;;;;21.92;12.38;;;;;;;17.92;100.00;101178.09;5025417;28;20034;-72
2023/10/11 07:17:32;;;;;;;23.77;12.60;;;;;;;17.98;100.00;101189.22;5027500;28;20030;-73
2023/10/11 07:19:57;;;;;;;21.27;12.75;;;;;;;17.94;100.00;101193.19;5025627;28;20048;-73
2023/10/11 07:22:26;;;;;;;23.63;13.90;;;;;;;17.82;100.00;101216.72;5024105;28;20041;-73
2023/10/11 07:25:18;;;;;;;25.92;13.23;;;;;;;17.95;100.00;101216.47;5031863;28;20041;-73
2023/10/11 07:27:43;;;;;;;27.30;13.50;;;;;;;17.67;100.00;101217.16;5026003;28;20045;-73
2023/10/11 07:30:16;;;;;;;24.40;12.70;;;;;;;17.68;100.00;101221.56;5030014;28;20029;-73
2023/10/11 07:32:42;;;;;;;21.83;12.70;;;;;;;17.60;100.00;101223.09;5028055;28;20034;-73
2023/10/11 07:35:18;;;;;;;26.63;13.65;;;;;;;17.60;100.00;101228.47;5023685;28;20038;-73
2023/10/11 07:37:44;;;;;;;26.52;13.32;;;;;;;17.43;100.00;101229.09;5023356;28;20062;-73
2023/10/11 07:40:12;;;;;;;27.60;14.05;;;;;;;17.64;100.00;101222.81;5029341;28;20030;-73
2023/10/11 07:42:38;;;;;;;22.98;13.00;;;;;;;17.65;100.00;101208.34;5029851;28;20044;-73
2023/10/11 07:45:12;;;;;;;36.88;14.13;;;;;;;17.65;100.00;101209.19;5027625;28;20037;-74
2023/10/11 07:47:45;;;;;;;25.75;13.57;;;;;;;17.72;100.00;101205.00;5020143;28;20673;-73
2023/10/11 07:50:14;;;;;;;21.27;13.75;;;;;;;17.64;100.00;101201.25;5029429;28;20065;-74
2023/10/11 07:52:43;;;;;;;24.38;13.55;;;;;;;17.70;100.00;101198.00;5022419;28;20147;-72
2023/10/11 07:55:12;;;;;;;29.45;14.35;;;;;;;17.66;100.00;101205.50;5029627;28;20044;-73
2023/10/11 07:57:44;;;;;;;29.73;13.75;;;;;;;17.65;100.00;101202.94;5022377;28;20041;-73
2023/10/11 08:00:17;;;;;;;;;;;;;;;17.81;100.00;101219.53;5030599;28;20041;-73
2023/10/11 08:02:56;;;;;;;29.10;15.18;;;;;;;17.85;100.00;101227.22;5028999;28;19920;-73
2023/10/11 08:05:25;;;;;;;29.73;15.57;;;;;;;17.70;100.00;101223.13;5032953;28;20045;-73
2023/10/11 08:07:55;;;;;;;27.90;14.90;;;;;;;17.56;100.00;101223.47;5026146;28;20041;-73
2023/10/11 08:10:33;;;;;;;27.70;15.05;;;;;;;17.55;100.00;101222.63;5036679;28;20042;-73
2023/10/11 08:13:02;;;;;;;28.27;15.23;;;;;;;17.57;100.00;101227.88;5032868;28;20041;-74
2023/10/11 08:15:29;;;;;;;24.80;14.48;;;;;;;17.55;100.00;101222.63;5033844;28;20042;-73
2023/10/11 08:17:54;;;;;;;30.75;14.35;;;;;;;17.55;100.00;101221.78;5025715;28;20029;-73
2023/10/11 08:20:24;;;;;;;31.70;14.95;;;;;;;17.53;100.00;101221.06;5039814;28;20847;-73
2023/10/11 08:22:55;;;;;;;28.27;15.25;;;;;;;17.47;100.00;101227.84;5032647;28;20112;-73
2023/10/11 08:25:25;;;;;;;28.37;15.50;;;;;;;17.43;100.00;101220.16;5028418;28;20149;-73
2023/10/11 08:28:04;;;;;;;32.83;16.00;;;;;;;17.66;100.00;101219.00;5031365;28;20052;-73
2023/10/11 08:30:31;;;;;;;25.95;15.65;;;;;;;17.86;100.00;101228.06;5033935;28;20033;-73
2023/10/11 08:32:56;;;;;;;36.17;14.95;;;;;;;17.85;100.00;101216.44;5028104;28;20033;-73
2023/10/11 08:35:31;;;;;;;24.65;14.98;;;;;;;17.92;100.00;101218.56;5033131;28;20037;-74
2023/10/11 08:38:02;;;;;;;32.13;16.52;;;;;;;18.14;100.00;101223.78;5037135;28;20044;-73
2023/10/11 08:40:35;;;;;;;34.22;16.10;;;;;;;18.22;100.00;101228.50;5028907;28;20119;-73
2023/10/11 08:43:02;;;;;;;23.73;14.25;;;;;;;18.34;100.00;101230.97;5030464;28;20049;-73
2023/10/11 08:45:59;;;;;;;31.30;15.02;;;;;;;18.51;100.00;101239.38;5033236;28;20038;-74
2023/10/11 08:48:25;;;;;;;30.17;15.38;;;;;;;18.63;100.00;101230.19;5025715;28;20034;-73
2023/10/11 08:50:54;;;;;;;23.30;13.88;;;;;;;19.07;100.00;101230.63;5028190;28;20067;-73
2023/10/11 08:53:21;;;;;;;30.48;15.60;;;;;;;19.25;100.00;101237.03;5026198;28;20100;-74
2023/10/11 08:55:56;;;;;;;25.95;14.98;;;;;;;19.33;100.00;101239.91;5028479;28;20044;-74
2023/10/11 08:58:28;;;;;;;29.15;15.82;;;;;;;19.40;100.00;101243.72;5033693;28;20038;-73
2023/10/11 09:00:59;;;;;;;26.50;16.33;;;;;;;19.44;100.00;101232.63;5023266;28;20080;-73
2023/10/11 09:03:26;;;;;;;30.42;16.83;;;;;;;19.32;100.00;101230.03;5026480;28;20046;-74
2023/10/11 09:05:58;;;;;;;25.58;14.52;;;;;;;19.36;100.00;101252.25;5030055;28;20068;-74
2023/10/11 09:08:27;;;;;;;34.63;16.60;;;;;;;19.39;100.00;101257.38;5021918;28;20040;-73
2023/10/11 09:11:12;;;;;;;32.75;18.55;;;;;;;19.20;100.00;101263.66;5029375;28;20079;-74
2023/10/11 09:13:38;;;;;;;33.92;17.90;;;;;;;18.93;100.00;101264.38;5039605;28;20152;-73
2023/10/11 09:16:13;;;;;;;35.72;18.98;;;;;;;18.83;100.00;101264.38;5025134;28;20126;-73
2023/10/11 09:19:02;;;;;;;35.22;18.75;;;;;;;18.80;100.00;101267.34;5025095;28;20038;-74
2023/10/11 09:21:29;;;;;;;32.20;19.73;;;;;;;18.96;100.00;101260.53;5033675;28;20040;-73
2023/10/11 09:23:55;;;;;;;38.40;18.02;;;;;;;18.92;100.00;101257.25;5028425;28;20026;-73
2023/10/11 09:26:32;;;;;;;34.15;18.92;;;;;;;18.98;100.00;101261.25;5028705;28;20033;-74
2023/10/11 09:29:02;;;;;;;35.67;19.90;;;;;;;18.89;100.00;101266.50;5020843;28;20034;-74
2023/10/11 09:31:30;;;;;;;37.92;19.92;;;;;;;19.08;100.00;101259.41;5030390;28;20042;-73
2023/10/11 09:34:07;;;;;;;29.52;19.85;;;;;;;19.21;100.00;101248.28;5034479;28;21013;-73
2023/10/11 09:36:33;;;;;;;35.10;19.42;;;;;;;19.19;100.00;101239.47;5027684;28;20839;-73
2023/10/11 09:39:02;;;;;;;30.75;19.77;;;;;;;18.99;100.00;101246.75;5030676;28;20041;-72
2023/10/11 09:41:38;;;;;;;35.33;20.92;;;;;;;19.19;100.00;101248.44;5032726;28;20049;-74
2023/10/11 09:44:05;;;;;;;38.63;20.63;;;;;;;19.32;100.00;101245.44;5020248;28;20033;-73
2023/10/11 09:46:33;;;;;;;35.50;20.52;;;;;;;19.24;100.00;101264.25;5028574;28;20105;-73
2023/10/11 09:49:00;;;;;;;35.10;21.45;;;;;;;19.14;100.00;101275.91;5030764;28;20030;-73
2023/10/11 09:51:26;;;;;;;39.08;22.17;;;;;;;18.82;100.00;101241.00;5016997;28;20065;-73
2023/10/11 09:53:53;;;;;;;38.95;22.63;;;;;;;18.99;100.00;101260.25;5036088;28;20045;-73
2023/10/11 09:56:48;;;;;;;38.60;22.63;;;;;;;18.98;100.00;101266.66;5024522;28;20056;-73
2023/10/11 09:59:51;;;;;;;35.50;21.52;;;;;;;19.07;100.00;101266.63;5023793;28;20038;-73
2023/10/11 10:02:30;;;;;;;41.00;21.90;;;;;;;18.97;100.00;101256.81;5031609;28;20149;-73
2023/10/11 10:04:57;;;;;;;37.17;22.92;;;;;;;19.04;100.00;101253.41;5035597;28;20041;-74
2023/10/11 10:07:25;;;;;;;39.10;21.98;;;;;;;19.09;100.00;101267.38;5019605;28;20136;-73
2023/10/11 10:10:02;;;;;;;38.03;21.42;;;;;;;19.01;100.00;101269.91;5020436;28;20055;-71
2023/10/11 10:12:40;;;;;;;41.42;22.08;;;;;;;19.03;100.00;101265.22;5027987;28;20121;-74
2023/10/11 10:15:14;;;;;;;42.22;23.45;;;;;;;18.96;100.00;101279.44;5027868;28;20968;-73
2023/10/11 10:18:05;;;;;;;40.65;22.33;;;;;;;18.96;100.00;101282.16;5027540;28;20029;-74
2023/10/11 10:20:33;;;;;;;38.83;22.20;;;;;;;18.91;100.00;101287.13;5016747;28;20042;-73
2023/10/11 10:23:13;;;;;;;45.72;24.63;;;;;;;18.77;100.00;101304.56;5020134;28;20051;-73
2023/10/11 10:25:40;;;;;;;46.22;23.02;;;;;;;18.79;100.00;101306.16;5025735;28;20107;-73
2023/10/11 10:28:45;;;;;;;41.28;23.63;;;;;;;18.56;100.00;101301.94;5027954;28;20055;-74
2023/10/11 10:31:11;;;;;;;43.80;24.73;;;;;;;18.55;100.00;101302.94;5022425;28;20042;-72
2023/10/11 10:33:39;;;;;;;47.90;23.58;;;;;;;18.63;100.00;101306.66;5029298;28;20078;-74
2023/10/11 10:36:17;;;;;;;47.38;25.50;;;;;;;18.73;100.00;101305.88;5025016;28;20029;-73
2023/10/11 10:39:00;;;;;;;44.78;25.33;;;;;;;18.69;100.00;101304.44;5033709;28;20065;-73
2023/10/11 10:41:31;;;;;;;48.88;27.52;;;;;;;18.60;100.00;101289.88;5036492;28;20038;-73
2023/10/11 10:44:02;;;;;;;48.28;27.15;;;;;;;18.72;100.00;101301.44;5020871;28;20029;-73
2023/10/11 10:46:27;;;;;;;45.42;26.10;;;;;;;18.69;100.00;101299.03;5031583;28;20049;-73
2023/10/11 10:48:55;;;;;;;44.70;24.48;;;;;;;18.67;100.00;101298.28;5029065;28;20041;-74
2023/10/11 10:51:20;;;;;;;50.22;25.75;;;;;;;18.78;100.00;101301.75;5025468;28;20037;-73
2023/10/11 10:53:55;;;;;;;46.15;26.67;;;;;;;18.78;100.00;101299.06;5022990;28;20049;-74
2023/10/11 10:56:24;;;;;;;47.50;25.10;;;;;;;18.82;100.00;101300.47;5018574;28;20041;-73
2023/10/11 10:59:12;;;;;;;49.88;27.05;;;;;;;18.94;100.00;101312.03;5017845;28;20983;-73
2023/10/11 11:01:48;;;;;;;42.70;25.60;;;;;;;18.64;100.00;101310.22;5025766;28;20073;-73
2023/10/11 11:04:16;;;;;;;44.50;25.02;;;;;;;18.93;100.00;101309.47;5026695;28;20045;-73
2023/10/11 11:06:46;;;;;;;44.42;27.23;;;;;;;19.07;100.00;101311.75;5028295;28;20144;-73
2023/10/11 11:09:19;;;;;;;44.10;26.38;;;;;;;19.03;100.00;101307.63;5028140;28;20026;-73
2023/10/11 11:11:49;;;;;;;53.00;26.63;;;;;;;19.01;100.00;101291.53;5024447;28;20033;-73
2023/10/11 11:14:19;;;;;;;55.65;28.38;;;;;;;19.06;100.00;101299.22;5041904;28;20038;-73
2023/10/11 11:16:54;;;;;;;49.95;26.65;;;;;;;19.17;100.00;101298.22;5022026;28;20088;-73
2023/10/11 11:19:25;;;;;;;49.50;28.02;;;;;;;19.10;100.00;101296.09;5020248;28;20050;-73
2023/10/11 11:22:19;;;;;;;61.90;27.58;;;;;;;19.17;100.00;101288.28;5028651;28;20049;-73
2023/10/11 11:24:46;;;;;;;64.55;27.38;;;;;;;19.39;100.00;101270.91;5023241;28;20029;-73
2023/10/11 11:27:15;;;;;;;50.05;25.83;;;;;;;19.63;100.00;101265.94;5019266;28;20142;-73
2023/10/11 11:29:40;;;;;;;53.60;25.63;;;;;;;19.81;100.00;101249.78;5019680;28;20045;-72
2023/10/11 11:32:14;;;;;;;41.40;24.35;;;;;;;20.00;100.00;101240.75;5018336;28;23658;-72
2023/10/11 11:35:02;;;;;;;46.60;25.75;;;;;;;19.84;100.00;101227.00;5028006;28;20069;-73
2023/10/11 11:37:30;;;;;;;45.90;24.98;;;;;;;20.14;100.00;101215.88;5031673;28;20037;-74
2023/10/11 11:40:18;;;;;;;43.00;24.95;;;;;;;20.43;100.00;101222.97;5029311;28;20041;-74
2023/10/11 11:42:47;;;;;;;41.58;24.05;;;;;;;20.21;100.00;101218.84;5020578;28;20120;-73
2023/10/11 11:45:17;;;;;;;45.50;23.30;;;;;;;20.18;100.00;101213.69;5025130;28;20053;-74
2023/10/11 11:47:58;;;;;;;45.08;24.77;;;;;;;20.11;100.00;101218.88;5034731;28;20041;-74
2023/10/11 11:50:33;;;;;;;44.70;23.92;;;;;;;20.27;100.00;101214.66;5023352;28;20041;-73
2023/10/11 11:52:59;;;;;;;39.83;23.20;;;;;;;20.06;100.00;101202.22;5027479;28;20029;-73
2023/10/11 11:55:25;;;;;;;39.40;22.40;;;;;;;20.20;100.00;101195.47;5022508;28;20153;-73
2023/10/11 11:57:50;;;;;;;46.03;23.20;;;;;;;20.22;100.00;101195.31;5021734;28;20096;-74
2023/10/11 12:02:55;;;;;;;33.35;21.38;;;;;;;20.30;100.00;101182.72;5028173;28;20577;-73
2023/10/11 12:05:21;;;;;;;38.45;21.35;;;;;;;20.51;100.00;101187.88;5027307;28;20038;-72
2023/10/11 12:07:50;;;;;;;37.45;21.35;;;;;;;20.39;100.00;101189.09;5032850;28;20121;-73
2023/10/11 12:10:24;;;;;;;41.60;20.63;;;;;;;20.36;100.00;101195.66;5024567;28;20049;-74